Time;durP1;ratioP1;P1;durP2;ratioP2;P2;SDS_P1;SDS_P2;PMS_P1;PMS_P2;Temp;Humidity;BMP_temperature;BMP_pressure;BME280_temperature;BME280_humidity;BME280_pressure;Samples;Min_cycle;Max_cycle;Signal;HPM_P1;HPM_P2
2023/11/05 00:00:35;;;;;;;7.07;2.65;;;;;;;;;;5137268;27;20423;-72
2023/11/05 00:03:20;;;;;;;4.43;2.10;;;;;;;;;;5136783;27;20417;-72
2023/11/05 00:06:06;;;;;;;2.75;2.00;;;;;;;;;;5136559;27;20051;-72
2023/11/05 00:08:52;;;;;;;2.78;1.70;;;;;;;;;;5135629;27;20415;-72
2023/11/05 00:11:37;;;;;;;2.30;1.60;;;;;;;;;;5136794;27;20038;-72
2023/11/05 00:14:23;;;;;;;2.25;1.50;;;;;;;;;;5135279;27;20439;-72
2023/11/05 00:17:08;;;;;;;3.95;1.52;;;;;;;;;;5121469;27;20038;-70
2023/11/05 00:19:54;;;;;;;4.18;1.60;;;;;;;;;;5136442;27;20400;-70
2023/11/05 00:22:40;;;;;;;2.30;1.70;;;;;;;;;;5135730;27;20019;-72
2023/11/05 00:25:25;;;;;;;1.98;1.30;;;;;;;;;;5135985;27;20062;-70
2023/11/05 00:28:11;;;;;;;2.78;1.30;;;;;;;;;;5135417;27;20026;-72
2023/11/05 00:30:58;;;;;;;1.45;1.35;;;;;;;;;;5135158;27;20023;-71
2023/11/05 00:33:44;;;;;;;2.55;1.60;;;;;;;;;;5135859;27;20439;-72
2023/11/05 00:36:29;;;;;;;4.88;1.75;;;;;;;;;;5136062;27;20031;-72
2023/11/05 00:39:15;;;;;;;3.80;1.90;;;;;;;;;;5135804;27;20114;-71
2023/11/05 00:42:01;;;;;;;2.60;1.50;;;;;;;;;;5135727;27;20035;-71
2023/11/05 00:44:46;;;;;;;2.47;1.45;;;;;;;;;;5135272;27;20377;-71
2023/11/05 00:47:32;;;;;;;2.78;1.60;;;;;;;;;;5121470;27;20027;-71
2023/11/05 00:50:17;;;;;;;2.33;1.33;;;;;;;;;;5120257;27;20058;-71
2023/11/05 00:53:03;;;;;;;5.65;1.60;;;;;;;;;;5120739;27;20387;-71
2023/11/05 00:55:49;;;;;;;1.75;1.30;;;;;;;;;;5121380;27;20043;-72
2023/11/05 00:58:34;;;;;;;1.42;1.30;;;;;;;;;;5121208;27;20080;-71
2023/11/05 01:01:20;;;;;;;2.45;1.20;;;;;;;;;;5134671;27;20394;-72
2023/11/05 01:04:05;;;;;;;2.75;1.45;;;;;;;;;;5136194;27;20019;-70
2023/11/05 01:06:51;;;;;;;1.67;1.20;;;;;;;;;;5120753;28;20126;-72
2023/11/05 01:09:37;;;;;;;1.23;1.10;;;;;;;;;;5120761;27;20091;-70
2023/11/05 01:12:22;;;;;;;3.15;1.50;;;;;;;;;;5134422;28;20038;-71
2023/11/05 01:15:08;;;;;;;2.95;1.10;;;;;;;;;;5135642;28;20030;-71
2023/11/05 01:17:54;;;;;;;1.10;0.88;;;;;;;;;;5134995;28;20012;-71
2023/11/05 01:20:39;;;;;;;1.40;1.00;;;;;;;;;;5120187;28;20443;-71
2023/11/05 01:23:25;;;;;;;4.15;1.10;;;;;;;;;;5134703;28;20042;-72
2023/11/05 01:26:10;;;;;;;1.10;0.90;;;;;;;;;;5135103;28;20033;-70
2023/11/05 01:28:57;;;;;;;1.85;1.05;;;;;;;;;;5134516;28;20324;-72
2023/11/05 01:31:42;;;;;;;1.77;1.00;;;;;;;;;;5120930;28;20136;-72
2023/11/05 01:34:28;;;;;;;1.30;1.00;;;;;;;;;;5135273;28;20007;-72
2023/11/05 01:37:13;;;;;;;1.48;0.93;;;;;;;;;;5134975;28;20023;-71
2023/11/05 01:39:59;;;;;;;2.28;1.10;;;;;;;;;;5120541;28;20413;-71
2023/11/05 01:42:45;;;;;;;4.25;1.20;;;;;;;;;;5135226;28;20054;-72
2023/11/05 01:45:30;;;;;;;1.33;1.00;;;;;;;;;;5119426;28;20023;-71
2023/11/05 01:48:16;;;;;;;1.88;1.00;;;;;;;;;;5134749;28;20042;-72
2023/11/05 01:51:05;;;;;;;1.30;1.02;;;;;;;;;;5118460;28;20011;-71
2023/11/05 01:53:52;;;;;;;1.40;1.10;;;;;;;;;;5134332;28;20031;-72
2023/11/05 01:56:38;;;;;;;1.13;0.80;;;;;;;;;;5134149;28;20051;-72
2023/11/05 01:59:23;;;;;;;1.73;0.90;;;;;;;;;;5120351;27;20015;-72
2023/11/05 02:02:09;;;;;;;1.13;0.88;;;;;;;;;;5138301;27;20031;-71
2023/11/05 02:04:55;;;;;;;1.15;0.77;;;;;;;;;;5138582;27;20015;-71
2023/11/05 02:07:40;;;;;;;3.47;1.02;;;;;;;;;;5139374;27;20030;-71
2023/11/05 02:10:26;;;;;;;2.22;1.15;;;;;;;;;;5122249;27;20027;-71
2023/11/05 02:13:12;;;;;;;1.85;1.00;;;;;;;;;;5123932;27;20072;-72
2023/11/05 02:15:58;;;;;;;1.05;0.70;;;;;;;;;;5139170;27;20043;-72
2023/11/05 02:18:44;;;;;;;2.90;1.00;;;;;;;;;;5138486;27;20465;-71
2023/11/05 02:21:39;;;;;;;0.88;0.80;;;;;;;;;;5124285;27;20046;-72
2023/11/05 02:24:24;;;;;;;1.98;1.00;;;;;;;;;;5124859;27;20034;-71
2023/11/05 02:27:10;;;;;;;1.50;1.00;;;;;;;;;;5137540;27;20026;-71
2023/11/05 02:29:56;;;;;;;2.22;1.10;;;;;;;;;;5139065;27;20099;-71
2023/11/05 02:32:41;;;;;;;1.58;1.02;;;;;;;;;;5138328;27;20366;-70
2023/11/05 02:35:28;;;;;;;3.45;0.93;;;;;;;;;;5122627;27;20015;-72
2023/11/05 02:38:14;;;;;;;1.38;1.00;;;;;;;;;;5122783;27;20027;-71
2023/11/05 02:40:59;;;;;;;1.67;0.90;;;;;;;;;;5137255;27;20023;-71
2023/11/05 02:43:45;;;;;;;2.38;1.02;;;;;;;;;;5122317;27;20018;-71
2023/11/05 02:46:30;;;;;;;3.95;0.98;;;;;;;;;;5123209;27;20027;-72
2023/11/05 02:49:16;;;;;;;5.20;0.98;;;;;;;;;;5123145;27;20023;-71
2023/11/05 02:52:01;;;;;;;2.15;1.13;;;;;;;;;;5123315;27;20015;-72
2023/11/05 02:54:48;;;;;;;1.45;1.00;;;;;;;;;;5136732;27;20047;-72
2023/11/05 02:57:37;;;;;;;1.35;1.10;;;;;;;;;;5122500;27;20439;-71
2023/11/05 03:00:25;;;;;;;1.20;0.90;;;;;;;;;;5121877;27;20439;-72
2023/11/05 03:03:13;;;;;;;2.10;0.90;;;;;;;;;;5137555;27;20023;-72
2023/11/05 03:05:59;;;;;;;3.00;0.90;;;;;;;;;;5138018;27;20015;-71
2023/11/05 03:08:44;;;;;;;3.63;1.42;;;;;;;;;;5136451;27;20347;-71
2023/11/05 03:11:30;;;;;;;3.30;1.00;;;;;;;;;;5136898;27;20027;-72
2023/11/05 03:14:15;;;;;;;1.67;1.05;;;;;;;;;;5137051;27;20022;-73
2023/11/05 03:17:01;;;;;;;2.05;1.50;;;;;;;;;;5137865;27;20011;-71
2023/11/05 03:19:47;;;;;;;2.00;1.35;;;;;;;;;;5137289;27;20098;-72
2023/11/05 03:22:34;;;;;;;2.53;1.17;;;;;;;;;;5138104;27;20034;-71
2023/11/05 03:25:19;;;;;;;3.25;1.10;;;;;;;;;;5137247;27;20022;-72
2023/11/05 03:28:05;;;;;;;2.28;1.10;;;;;;;;;;5137413;27;20408;-71
2023/11/05 03:30:50;;;;;;;3.15;1.00;;;;;;;;;;5136518;27;20027;-72
2023/11/05 03:33:36;;;;;;;1.45;1.02;;;;;;;;;;5136908;27;20029;-72
2023/11/05 03:36:22;;;;;;;2.97;1.10;;;;;;;;;;5136241;27;20007;-72
2023/11/05 03:39:08;;;;;;;2.33;1.75;;;;;;;;;;5146653;27;20003;-72
2023/11/05 03:41:53;;;;;;;2.70;1.50;;;;;;;;;;5155189;27;20016;-70
2023/11/05 03:44:39;;;;;;;7.93;2.55;;;;;;;;;;5156632;27;20056;-69
2023/11/05 03:47:25;;;;;;;1.90;1.45;;;;;;;;;;5157397;27;20082;-69
2023/11/05 03:50:11;;;;;;;3.22;1.08;;;;;;;;;;5157650;27;20066;-71
2023/11/05 03:52:57;;;;;;;5.43;1.00;;;;;;;;;;5157312;27;20058;-70
2023/11/05 03:55:42;;;;;;;3.50;0.90;;;;;;;;;;5116689;28;20040;-71
2023/11/05 03:58:28;;;;;;;0.93;0.80;;;;;;;;;;5116974;28;20464;-71
2023/11/05 04:01:18;;;;;;;1.90;1.10;;;;;;;;;;5115615;28;20123;-71
2023/11/05 04:04:03;;;;;;;1.55;0.80;;;;;;;;;;5116488;28;20035;-71
2023/11/05 04:06:50;;;;;;;4.35;1.15;;;;;;;;;;5116608;28;20099;-71
2023/11/05 04:09:35;;;;;;;1.48;1.10;;;;;;;;;;5114919;28;20099;-71
2023/11/05 04:12:21;;;;;;;2.85;1.60;;;;;;;;;;5115834;28;20106;-72
2023/11/05 04:15:07;;;;;;;2.45;1.80;;;;;;;;;;5114718;28;20428;-71
2023/11/05 04:17:52;;;;;;;5.50;2.55;;;;;;;;;;5116142;28;20088;-71
2023/11/05 04:20:38;;;;;;;2.63;1.73;;;;;;;;;;5116155;28;20112;-71
2023/11/05 04:23:23;;;;;;;2.67;1.58;;;;;;;;;;5115136;28;20023;-72
2023/11/05 04:26:11;;;;;;;4.13;1.40;;;;;;;;;;5100227;28;20038;-72
2023/11/05 04:28:56;;;;;;;2.13;1.17;;;;;;;;;;5115056;28;20381;-71
2023/11/05 04:31:42;;;;;;;2.17;1.23;;;;;;;;;;5100480;28;20023;-71
2023/11/05 04:34:32;;;;;;;1.70;1.00;;;;;;;;;;5115870;28;20024;-71
2023/11/05 04:37:18;;;;;;;1.48;1.20;;;;;;;;;;5115809;28;20023;-73
2023/11/05 04:40:06;;;;;;;3.20;1.67;;;;;;;;;;5100093;28;20436;-71
2023/11/05 04:42:51;;;;;;;3.90;1.50;;;;;;;;;;5115332;28;20427;-71
2023/11/05 04:45:37;;;;;;;1.80;1.10;;;;;;;;;;5114843;28;20108;-70
2023/11/05 04:48:22;;;;;;;3.40;1.10;;;;;;;;;;5115061;28;20019;-72
2023/11/05 04:51:09;;;;;;;2.03;0.90;;;;;;;;;;5099371;28;20355;-72
2023/11/05 04:53:54;;;;;;;2.67;1.10;;;;;;;;;;5120811;27;20071;-72
2023/11/05 04:56:41;;;;;;;1.88;1.00;;;;;;;;;;5136124;27;20462;-73
2023/11/05 04:59:27;;;;;;;1.52;1.00;;;;;;;;;;5118572;27;20374;-72
2023/11/05 05:02:13;;;;;;;2.97;1.00;;;;;;;;;;5135833;27;20023;-72
2023/11/05 05:04:58;;;;;;;1.50;1.20;;;;;;;;;;5135641;27;20019;-71
2023/11/05 05:07:44;;;;;;;1.15;1.00;;;;;;;;;;5111787;27;20102;-72
2023/11/05 05:10:29;;;;;;;3.25;0.95;;;;;;;;;;5134968;27;20072;-72
2023/11/05 05:13:15;;;;;;;1.77;1.00;;;;;;;;;;5120917;28;20023;-72
2023/11/05 05:16:03;;;;;;;1.23;1.00;;;;;;;;;;5128056;28;20019;-72
2023/11/05 05:18:48;;;;;;;2.40;1.00;;;;;;;;;;5133782;28;20024;-71
2023/11/05 05:21:34;;;;;;;1.77;1.00;;;;;;;;;;5134050;28;20485;-71
2023/11/05 05:24:19;;;;;;;1.58;1.05;;;;;;;;;;5120107;28;20019;-71
2023/11/05 05:27:05;;;;;;;2.22;0.85;;;;;;;;;;5134139;28;20019;-73
2023/11/05 05:29:52;;;;;;;1.75;0.95;;;;;;;;;;5119196;28;20450;-71
2023/11/05 05:32:38;;;;;;;0.88;0.80;;;;;;;;;;5119218;28;20026;-72
2023/11/05 05:35:23;;;;;;;1.60;0.90;;;;;;;;;;5136170;27;20500;-71
2023/11/05 05:38:09;;;;;;;5.30;1.10;;;;;;;;;;5122866;27;20031;-72
2023/11/05 05:40:55;;;;;;;1.70;1.00;;;;;;;;;;5137564;27;20078;-71
2023/11/05 05:43:40;;;;;;;1.75;1.10;;;;;;;;;;5137993;27;20019;-71
2023/11/05 05:46:26;;;;;;;1.67;1.08;;;;;;;;;;5138277;27;20026;-71
2023/11/05 05:49:11;;;;;;;9.57;1.38;;;;;;;;;;5137662;27;20019;-71
2023/11/05 05:51:58;;;;;;;1.65;1.10;;;;;;;;;;5138211;27;20012;-72
2023/11/05 05:54:44;;;;;;;6.82;1.50;;;;;;;;;;5137735;27;20049;-71
2023/11/05 05:57:29;;;;;;;1.52;1.00;;;;;;;;;;5137330;27;20164;-71
2023/11/05 06:00:15;;;;;;;3.47;1.00;;;;;;;;;;5138574;27;20019;-71
2023/11/05 06:03:01;;;;;;;1.35;0.98;;;;;;;;;;5137913;27;20019;-71
2023/11/05 06:05:46;;;;;;;1.55;1.20;;;;;;;;;;5137710;27;20396;-72
2023/11/05 06:08:32;;;;;;;1.42;1.10;;;;;;;;;;5137688;27;20023;-71
2023/11/05 06:11:17;;;;;;;1.58;0.85;;;;;;;;;;5137347;27;20088;-71
2023/11/05 06:14:03;;;;;;;0.68;0.60;;;;;;;;;;5137660;27;20022;-71
2023/11/05 06:16:49;;;;;;;1.88;0.98;;;;;;;;;;5137052;27;20071;-71
2023/11/05 06:19:34;;;;;;;2.50;1.23;;;;;;;;;;5136942;27;20347;-71
2023/11/05 06:22:20;;;;;;;5.88;1.00;;;;;;;;;;5137123;27;20110;-72
2023/11/05 06:25:09;;;;;;;2.28;1.00;;;;;;;;;;5136680;27;20400;-71
2023/11/05 06:27:55;;;;;;;4.32;0.88;;;;;;;;;;5136938;27;20019;-72
2023/11/05 06:30:41;;;;;;;2.17;1.10;;;;;;;;;;5122491;27;20037;-71
2023/11/05 06:33:26;;;;;;;3.28;1.20;;;;;;;;;;5136744;27;20011;-71
2023/11/05 06:36:12;;;;;;;2.20;1.23;;;;;;;;;;5136698;27;20457;-71
2023/11/05 06:38:58;;;;;;;2.13;1.02;;;;;;;;;;5137163;27;20181;-70
2023/11/05 06:41:43;;;;;;;3.35;1.10;;;;;;;;;;5121604;27;20355;-72
2023/11/05 06:44:30;;;;;;;1.77;1.17;;;;;;;;;;5123566;27;20023;-72
2023/11/05 06:47:15;;;;;;;2.80;1.17;;;;;;;;;;5121103;27;20023;-71
2023/11/05 06:50:04;;;;;;;2.38;1.02;;;;;;;;;;5136166;27;20026;-72
2023/11/05 06:52:49;;;;;;;3.13;1.02;;;;;;;;;;5137083;27;20097;-72
2023/11/05 06:55:35;;;;;;;3.65;0.90;;;;;;;;;;5136239;27;20077;-71
2023/11/05 06:58:20;;;;;;;2.70;0.90;;;;;;;;;;5138510;27;20389;-71
2023/11/05 07:01:06;;;;;;;1.15;0.90;;;;;;;;;;5136996;27;20023;-72
2023/11/05 07:03:52;;;;;;;4.95;1.50;;;;;;;;;;5136619;27;20335;-72
2023/11/05 07:06:37;;;;;;;3.25;1.17;;;;;;;;;;5136483;27;20020;-71
2023/11/05 07:09:23;;;;;;;1.20;0.90;;;;;;;;;;5137526;27;20015;-72
2023/11/05 07:12:09;;;;;;;1.55;1.00;;;;;;;;;;5136721;27;20321;-72
2023/11/05 07:14:55;;;;;;;5.78;1.00;;;;;;;;;;5137092;27;20019;-72
2023/11/05 07:17:40;;;;;;;3.60;1.00;;;;;;;;;;5120361;27;20167;-71
2023/11/05 07:20:26;;;;;;;1.73;0.90;;;;;;;;;;5121372;27;20023;-71
2023/11/05 07:23:11;;;;;;;3.00;1.10;;;;;;;;;;5137969;27;20021;-72
2023/11/05 07:25:57;;;;;;;2.22;1.00;;;;;;;;;;5138063;27;20408;-71
2023/11/05 07:28:44;;;;;;;2.78;1.10;;;;;;;;;;5137396;27;20029;-73
2023/11/05 07:31:29;;;;;;;5.72;1.08;;;;;;;;;;5136733;27;20522;-72
2023/11/05 07:34:15;;;;;;;3.85;0.82;;;;;;;;;;5136372;27;20027;-73
2023/11/05 07:37:01;;;;;;;4.00;1.02;;;;;;;;;;5136981;27;20030;-71
2023/11/05 07:39:47;;;;;;;3.45;0.90;;;;;;;;;;5121842;27;20027;-72
2023/11/05 07:42:32;;;;;;;2.10;0.65;;;;;;;;;;5137226;27;20015;-71
2023/11/05 07:45:18;;;;;;;1.40;0.95;;;;;;;;;;5136114;27;20023;-71
2023/11/05 07:48:05;;;;;;;4.30;0.98;;;;;;;;;;5121080;27;20031;-72
2023/11/05 07:50:52;;;;;;;1.40;0.90;;;;;;;;;;5136203;27;20427;-71
2023/11/05 07:53:37;;;;;;;1.65;0.90;;;;;;;;;;5136250;27;20055;-71
2023/11/05 07:56:23;;;;;;;3.75;1.05;;;;;;;;;;5123354;27;20051;-71
2023/11/05 07:59:08;;;;;;;8.88;1.60;;;;;;;;;;5139383;27;20094;-71
2023/11/05 08:01:54;;;;;;;10.45;1.40;;;;;;;;;;5137027;27;20019;-71
2023/11/05 08:04:40;;;;;;;2.70;1.00;;;;;;;;;;5136892;27;20075;-73
2023/11/05 08:07:27;;;;;;;15.18;2.45;;;;;;;;;;5136556;27;20127;-71
2023/11/05 08:10:13;;;;;;;21.63;3.83;;;;;;;;;;5136365;27;20072;-71
2023/11/05 08:12:59;;;;;;;4.50;1.30;;;;;;;;;;5135254;27;20019;-72
2023/11/05 08:15:45;;;;;;;3.65;0.95;;;;;;;;;;5136619;27;20019;-72
2023/11/05 08:18:31;;;;;;;1.98;1.20;;;;;;;;;;5135750;27;20029;-72
2023/11/05 08:21:20;;;;;;;4.97;1.40;;;;;;;;;;5136716;27;20039;-72
2023/11/05 08:24:06;;;;;;;1.30;0.90;;;;;;;;;;5121639;27;20348;-71
2023/11/05 08:26:52;;;;;;;7.60;1.10;;;;;;;;;;5119482;27;20012;-71
2023/11/05 08:29:40;;;;;;;5.75;1.05;;;;;;;;;;5136360;27;20038;-72
2023/11/05 08:32:27;;;;;;;4.13;1.00;;;;;;;;;;5135218;27;20092;-72
2023/11/05 08:35:13;;;;;;;1.35;1.10;;;;;;;;;;5135623;27;20030;-71
2023/11/05 08:37:58;;;;;;;2.08;1.00;;;;;;;;;;5121164;27;20051;-72
2023/11/05 08:40:45;;;;;;;1.80;1.20;;;;;;;;;;5136016;27;20033;-71
2023/11/05 08:43:30;;;;;;;1.08;0.80;;;;;;;;;;5135805;27;20023;-71
2023/11/05 08:46:16;;;;;;;1.35;0.68;;;;;;;;;;5136466;27;20033;-73
2023/11/05 08:49:02;;;;;;;3.40;0.88;;;;;;;;;;5134281;27;20055;-71
2023/11/05 08:51:47;;;;;;;6.80;1.00;;;;;;;;;;5135560;27;20038;-73
2023/11/05 08:54:33;;;;;;;3.25;0.90;;;;;;;;;;5135448;27;20065;-71
2023/11/05 08:57:19;;;;;;;1.75;0.80;;;;;;;;;;5121876;27;20080;-72
2023/11/05 09:00:11;;;;;;;1.92;1.00;;;;;;;;;;5135206;27;20106;-72
2023/11/05 09:02:57;;;;;;;2.25;0.70;;;;;;;;;;5121555;27;20393;-71
2023/11/05 09:05:42;;;;;;;0.80;0.70;;;;;;;;;;5120748;27;20102;-71
2023/11/05 09:08:28;;;;;;;12.15;1.23;;;;;;;;;;5120065;27;20019;-72
2023/11/05 09:11:14;;;;;;;3.45;1.75;;;;;;;;;;5119996;27;20030;-73
2023/11/05 09:13:59;;;;;;;2.35;0.70;;;;;;;;;;5135547;27;20031;-72
2023/11/05 09:16:45;;;;;;;2.50;0.70;;;;;;;;;;5134923;28;20050;-72
2023/11/05 09:19:31;;;;;;;5.35;0.80;;;;;;;;;;5134649;28;20434;-71
2023/11/05 09:22:16;;;;;;;1.45;0.80;;;;;;;;;;5135240;28;20501;-72
2023/11/05 09:25:04;;;;;;;4.53;0.77;;;;;;;;;;5135234;28;20034;-72
2023/11/05 09:27:50;;;;;;;2.63;0.82;;;;;;;;;;5120546;28;20052;-71
2023/11/05 09:30:35;;;;;;;1.02;0.70;;;;;;;;;;5134777;28;20027;-72
2023/11/05 09:33:21;;;;;;;2.72;0.80;;;;;;;;;;5134620;28;20024;-73
2023/11/05 09:36:07;;;;;;;3.03;1.00;;;;;;;;;;5135708;28;20030;-71
2023/11/05 09:38:54;;;;;;;3.13;0.85;;;;;;;;;;5135050;28;20405;-72
2023/11/05 09:41:39;;;;;;;10.27;1.20;;;;;;;;;;5135315;28;20035;-73
2023/11/05 09:44:25;;;;;;;5.15;0.93;;;;;;;;;;5133304;28;20030;-73
2023/11/05 09:47:12;;;;;;;2.80;1.30;;;;;;;;;;5135275;28;20019;-72
2023/11/05 09:49:58;;;;;;;2.92;0.70;;;;;;;;;;5133979;28;20027;-72
2023/11/05 09:52:43;;;;;;;1.05;0.85;;;;;;;;;;5134870;28;20019;-73
2023/11/05 09:55:29;;;;;;;2.92;1.27;;;;;;;;;;5134665;28;20159;-72
2023/11/05 09:58:15;;;;;;;2.05;1.10;;;;;;;;;;5118822;28;20052;-72
2023/11/05 10:01:04;;;;;;;4.25;0.80;;;;;;;;;;5134802;28;20033;-72
2023/11/05 10:03:51;;;;;;;2.50;0.55;;;;;;;;;;5120003;28;20023;-72
2023/11/05 10:06:36;;;;;;;6.68;0.80;;;;;;;;;;5133951;28;20044;-71
2023/11/05 10:09:22;;;;;;;0.80;0.57;;;;;;;;;;5118647;28;20020;-73
2023/11/05 10:12:09;;;;;;;1.45;0.50;;;;;;;;;;5134684;28;20015;-72
2023/11/05 10:14:54;;;;;;;5.90;0.80;;;;;;;;;;5134704;28;20015;-71
2023/11/05 10:17:40;;;;;;;1.77;0.70;;;;;;;;;;5135009;28;20019;-72
2023/11/05 10:20:27;;;;;;;1.75;0.60;;;;;;;;;;5120382;27;20098;-73
2023/11/05 10:23:12;;;;;;;0.80;0.50;;;;;;;;;;5138564;27;20027;-73
2023/11/05 10:25:58;;;;;;;1.33;0.60;;;;;;;;;;5138094;27;20116;-73
2023/11/05 10:28:51;;;;;;;1.05;0.50;;;;;;;;;;5138126;27;20034;-72
2023/11/05 10:31:37;;;;;;;3.88;0.82;;;;;;;;;;5137389;27;20046;-72
2023/11/05 10:34:23;;;;;;;0.82;0.65;;;;;;;;;;5137580;27;20091;-73
2023/11/05 10:37:08;;;;;;;1.48;0.63;;;;;;;;;;5123646;27;20439;-72
2023/11/05 10:39:54;;;;;;;12.07;0.93;;;;;;;;;;5138603;27;20019;-72
2023/11/05 10:42:40;;;;;;;0.68;0.50;;;;;;;;;;5128706;27;20415;-72
2023/11/05 10:45:26;;;;;;;1.02;0.70;;;;;;;;;;5122576;27;20023;-73
2023/11/05 10:48:13;;;;;;;6.68;0.65;;;;;;;;;;5137075;27;20025;-72
2023/11/05 10:51:00;;;;;;;5.38;1.13;;;;;;;;;;5137497;27;20496;-72
2023/11/05 10:53:47;;;;;;;2.38;0.50;;;;;;;;;;5122068;27;20043;-73
2023/11/05 10:56:33;;;;;;;1.38;1.13;;;;;;;;;;5138035;27;20045;-73
2023/11/05 10:59:34;;;;;;;1.52;0.70;;;;;;;;;;5137991;27;20087;-72
2023/11/05 11:02:20;;;;;;;1.55;0.70;;;;;;;;;;5137917;27;20027;-72
2023/11/05 11:05:29;;;;;;;4.32;0.80;;;;;;;;;;5137681;27;20073;-73
2023/11/05 11:08:16;;;;;;;1.77;0.70;;;;;;;;;;5104143;27;20124;-73
2023/11/05 11:11:06;;;;;;;6.07;0.80;;;;;;;;;;5136615;27;20034;-73
2023/11/05 11:13:52;;;;;;;6.95;1.38;;;;;;;;;;5137755;27;20019;-71
2023/11/05 11:16:40;;;;;;;3.28;0.98;;;;;;;;;;5136536;27;20043;-73
2023/11/05 11:19:28;;;;;;;2.40;0.70;;;;;;;;;;5136680;27;20034;-71
2023/11/05 11:22:15;;;;;;;1.00;0.70;;;;;;;;;;5137356;27;20022;-74
2023/11/05 11:25:03;;;;;;;2.63;0.80;;;;;;;;;;5137311;27;20114;-73
2023/11/05 11:27:49;;;;;;;1.00;0.70;;;;;;;;;;5137302;27;20046;-75
2023/11/05 11:30:35;;;;;;;3.50;0.80;;;;;;;;;;5122124;27;20114;-74
2023/11/05 11:33:21;;;;;;;1.23;0.70;;;;;;;;;;5135425;27;20019;-74
2023/11/05 11:36:07;;;;;;;2.70;1.02;;;;;;;;;;5121668;27;20023;-75
2023/11/05 11:38:53;;;;;;;3.92;1.45;;;;;;;;;;5136504;27;20027;-74
2023/11/05 11:41:39;;;;;;;10.35;1.35;;;;;;;;;;5135935;27;20143;-73
2023/11/05 11:44:25;;;;;;;2.67;0.77;;;;;;;;;;5136481;27;20023;-75
2023/11/05 11:47:10;;;;;;;2.05;0.77;;;;;;;;;;5136920;27;20019;-74
2023/11/05 11:50:03;;;;;;;3.72;0.95;;;;;;;;;;5136994;27;20027;-74
2023/11/05 11:52:49;;;;;;;0.98;0.60;;;;;;;;;;5122790;27;20015;-73
2023/11/05 11:55:35;;;;;;;3.00;0.90;;;;;;;;;;5136400;27;20054;-74
2023/11/05 11:58:21;;;;;;;5.32;0.90;;;;;;;;;;5122162;27;20022;-74
2023/11/05 12:01:10;;;;;;;1.80;0.50;;;;;;;;;;5121788;27;20019;-74
2023/11/05 12:03:59;;;;;;;0.95;0.60;;;;;;;;;;5121596;27;20365;-74
2023/11/05 12:06:45;;;;;;;2.05;1.00;;;;;;;;;;5136689;27;20020;-74
2023/11/05 12:09:32;;;;;;;11.60;1.70;;;;;;;;;;5136613;27;20030;-75
2023/11/05 12:12:18;;;;;;;2.70;0.60;;;;;;;;;;5136206;27;20106;-74
2023/11/05 12:15:10;;;;;;;3.17;0.80;;;;;;;;;;5136503;27;20034;-74
2023/11/05 12:17:55;;;;;;;6.40;0.60;;;;;;;;;;5136466;27;20027;-75
2023/11/05 12:20:41;;;;;;;0.77;0.60;;;;;;;;;;5136736;27;20015;-75
2023/11/05 12:23:27;;;;;;;1.70;0.70;;;;;;;;;;5123761;27;20053;-75
2023/11/05 12:26:17;;;;;;;2.60;0.70;;;;;;;;;;5146062;27;20019;-74
2023/11/05 12:29:02;;;;;;;4.63;0.85;;;;;;;;;;5120279;27;20080;-75
2023/11/05 12:31:48;;;;;;;2.13;0.50;;;;;;;;;;5137826;27;20148;-74
2023/11/05 12:34:34;;;;;;;1.40;1.00;;;;;;;;;;5138191;27;20019;-74
2023/11/05 12:37:19;;;;;;;6.00;1.30;;;;;;;;;;5136488;27;20022;-74
2023/11/05 12:40:05;;;;;;;5.55;1.20;;;;;;;;;;5135933;27;20034;-73
2023/11/05 12:42:51;;;;;;;1.30;0.65;;;;;;;;;;5135764;27;20050;-73
2023/11/05 12:45:36;;;;;;;2.20;0.88;;;;;;;;;;5135469;27;20320;-73
2023/11/05 12:48:23;;;;;;;19.02;2.15;;;;;;;;;;5136324;27;20025;-74
2023/11/05 12:51:09;;;;;;;9.82;1.10;;;;;;;;;;5136375;27;20019;-73
2023/11/05 12:53:54;;;;;;;3.28;0.70;;;;;;;;;;5136372;27;20047;-75
2023/11/05 12:56:40;;;;;;;6.50;0.80;;;;;;;;;;5135629;27;20011;-75
2023/11/05 12:59:26;;;;;;;3.38;1.00;;;;;;;;;;5136687;27;20018;-75
2023/11/05 13:02:12;;;;;;;1.48;0.65;;;;;;;;;;5135291;27;20098;-73
2023/11/05 13:04:58;;;;;;;1.73;0.50;;;;;;;;;;5115625;27;20102;-73
2023/11/05 13:07:44;;;;;;;2.05;0.70;;;;;;;;;;5135745;27;20022;-73
2023/11/05 13:10:29;;;;;;;1.13;0.60;;;;;;;;;;5120438;28;20026;-72
2023/11/05 13:13:16;;;;;;;0.88;0.60;;;;;;;;;;5121227;27;20030;-75
2023/11/05 13:16:02;;;;;;;11.15;0.88;;;;;;;;;;5135424;27;20015;-74
2023/11/05 13:18:47;;;;;;;3.40;0.77;;;;;;;;;;5135558;28;20023;-74
2023/11/05 13:21:34;;;;;;;3.63;0.60;;;;;;;;;;5135589;28;20023;-74
2023/11/05 13:24:19;;;;;;;3.20;0.60;;;;;;;;;;5135693;28;20029;-73
2023/11/05 13:27:05;;;;;;;3.13;0.75;;;;;;;;;;5134683;28;20038;-75
2023/11/05 13:29:51;;;;;;;3.35;0.50;;;;;;;;;;5135724;28;20020;-74
2023/11/05 13:32:38;;;;;;;1.40;0.70;;;;;;;;;;5134893;28;20011;-75
2023/11/05 13:35:25;;;;;;;2.47;0.50;;;;;;;;;;5120728;28;20019;-75
2023/11/05 13:38:10;;;;;;;1.80;0.77;;;;;;;;;;5119829;28;20015;-74
2023/11/05 13:40:56;;;;;;;3.65;0.75;;;;;;;;;;5119396;28;20118;-75
2023/11/05 13:43:42;;;;;;;0.60;0.50;;;;;;;;;;5135158;28;20380;-73
2023/11/05 13:46:27;;;;;;;2.45;0.52;;;;;;;;;;5135074;28;20076;-74
2023/11/05 13:49:13;;;;;;;0.73;0.52;;;;;;;;;;5119578;28;20026;-75
2023/11/05 13:51:59;;;;;;;0.95;0.70;;;;;;;;;;5135094;28;20019;-74
2023/11/05 13:54:44;;;;;;;1.35;0.68;;;;;;;;;;5135258;28;20126;-74
2023/11/05 13:57:30;;;;;;;5.05;0.60;;;;;;;;;;5124255;27;20015;-74
2023/11/05 14:00:16;;;;;;;8.52;0.90;;;;;;;;;;5138392;27;20046;-74
2023/11/05 14:03:02;;;;;;;3.10;0.93;;;;;;;;;;5138594;27;20030;-76
2023/11/05 14:05:47;;;;;;;0.80;0.70;;;;;;;;;;5138677;27;20027;-74
2023/11/05 14:08:33;;;;;;;2.40;0.88;;;;;;;;;;5123789;27;20016;-75
2023/11/05 14:11:19;;;;;;;5.35;1.13;;;;;;;;;;5138972;27;20026;-75
2023/11/05 14:14:07;;;;;;;3.00;1.20;;;;;;;;;;5139034;27;20034;-74
2023/11/05 14:16:54;;;;;;;1.98;0.88;;;;;;;;;;5138878;27;20030;-75
2023/11/05 14:19:40;;;;;;;5.85;1.15;;;;;;;;;;5138335;27;20046;-74
2023/11/05 14:22:25;;;;;;;1.73;1.10;;;;;;;;;;5138820;27;20312;-75
2023/11/05 14:25:11;;;;;;;1.77;1.17;;;;;;;;;;5139056;27;20046;-74
2023/11/05 14:27:58;;;;;;;6.45;1.50;;;;;;;;;;5138596;27;20030;-74
2023/11/05 14:30:44;;;;;;;5.63;1.23;;;;;;;;;;5124003;27;20101;-75
2023/11/05 14:33:30;;;;;;;2.92;1.23;;;;;;;;;;5122865;27;20061;-73
2023/11/05 14:36:16;;;;;;;2.10;1.10;;;;;;;;;;5138269;27;20098;-75
2023/11/05 14:39:04;;;;;;;3.35;1.25;;;;;;;;;;5123506;27;20015;-75
2023/11/05 14:41:50;;;;;;;2.42;1.10;;;;;;;;;;5138387;27;20392;-74
2023/11/05 14:44:36;;;;;;;2.70;1.10;;;;;;;;;;5138831;27;20027;-74
2023/11/05 14:47:22;;;;;;;14.13;1.73;;;;;;;;;;5137395;27;20023;-74
2023/11/05 14:50:08;;;;;;;4.00;1.48;;;;;;;;;;5136958;27;20034;-73
2023/11/05 14:52:56;;;;;;;4.90;1.42;;;;;;;;;;5137696;27;20030;-74
2023/11/05 14:55:42;;;;;;;4.82;1.33;;;;;;;;;;5137694;27;20122;-76
2023/11/05 14:58:28;;;;;;;2.25;1.30;;;;;;;;;;5137013;27;20023;-75
2023/11/05 15:01:17;;;;;;;4.32;1.35;;;;;;;;;;5122591;27;20055;-75
2023/11/05 15:04:03;;;;;;;7.00;1.52;;;;;;;;;;5130768;27;20030;-73
2023/11/05 15:06:49;;;;;;;3.83;1.50;;;;;;;;;;5135965;27;20058;-76
2023/11/05 15:09:35;;;;;;;19.63;2.08;;;;;;;;;;5136328;27;20038;-74
2023/11/05 15:12:21;;;;;;;6.13;1.98;;;;;;;;;;5121373;27;20015;-74
2023/11/05 15:15:06;;;;;;;8.18;2.63;;;;;;;;;;5136062;27;20138;-74
2023/11/05 15:17:52;;;;;;;12.45;3.35;;;;;;;;;;5136343;27;20106;-74
2023/11/05 15:20:38;;;;;;;8.27;2.70;;;;;;;;;;5136389;27;20075;-74
2023/11/05 15:23:23;;;;;;;5.40;2.25;;;;;;;;;;5121235;27;20015;-74
2023/11/05 15:26:10;;;;;;;6.15;2.47;;;;;;;;;;5135947;27;20031;-74
2023/11/05 15:28:56;;;;;;;8.45;2.65;;;;;;;;;;5136087;27;20034;-74
2023/11/05 15:31:43;;;;;;;6.95;2.10;;;;;;;;;;5136224;27;20015;-74
2023/11/05 15:34:28;;;;;;;2.92;1.98;;;;;;;;;;5135848;27;20047;-75
2023/11/05 15:37:14;;;;;;;8.15;2.58;;;;;;;;;;5135603;27;20011;-76
2023/11/05 15:40:00;;;;;;;7.07;3.03;;;;;;;;;;5135870;27;20083;-74
2023/11/05 15:42:49;;;;;;;4.47;2.30;;;;;;;;;;5136579;27;20026;-74
2023/11/05 15:45:35;;;;;;;5.10;2.40;;;;;;;;;;5135780;27;20027;-74
2023/11/05 15:48:21;;;;;;;6.20;2.28;;;;;;;;;;5137258;27;20034;-76
2023/11/05 15:51:06;;;;;;;3.90;2.35;;;;;;;;;;5136423;27;20389;-74
2023/11/05 15:53:52;;;;;;;3.28;1.70;;;;;;;;;;5136010;27;20499;-75
2023/11/05 15:56:40;;;;;;;3.58;1.83;;;;;;;;;;5121391;27;20030;-75
2023/11/05 15:59:26;;;;;;;2.13;1.25;;;;;;;;;;5136647;27;20019;-75
2023/11/05 16:02:12;;;;;;;2.65;1.55;;;;;;;;;;5122128;27;20087;-73
2023/11/05 16:05:00;;;;;;;3.35;1.63;;;;;;;;;;5136470;27;20023;-73
2023/11/05 16:07:45;;;;;;;4.60;1.67;;;;;;;;;;5136473;27;20034;-73
2023/11/05 16:10:31;;;;;;;3.28;1.55;;;;;;;;;;5135693;27;20451;-73
2023/11/05 16:13:16;;;;;;;4.10;1.20;;;;;;;;;;5137027;27;20031;-75
2023/11/05 16:16:04;;;;;;;2.90;1.50;;;;;;;;;;5136460;27;20068;-74
2023/11/05 16:18:49;;;;;;;2.67;1.23;;;;;;;;;;5135648;27;20023;-74
2023/11/05 16:21:35;;;;;;;5.65;1.45;;;;;;;;;;5135937;27;20038;-74
2023/11/05 16:24:21;;;;;;;2.53;1.17;;;;;;;;;;5135452;27;20061;-73
2023/11/05 16:27:06;;;;;;;4.30;1.40;;;;;;;;;;5136329;27;20431;-73
2023/11/05 16:29:54;;;;;;;2.97;1.23;;;;;;;;;;5135886;27;20359;-74
2023/11/05 16:32:41;;;;;;;2.92;1.08;;;;;;;;;;5120652;27;20168;-74
2023/11/05 16:35:26;;;;;;;5.55;1.40;;;;;;;;;;5121575;27;20015;-73